桃園國際機場 - 塔臺(二站)

METAR RCTP 092130Z 15006KT 9999 FEW012 BKN150 24/22 Q1008 NOSIG RMK A2978(E)=

站台狀態:Offline
最後更新:2021-05-10 05:30:01